Weather observations for the past three days for
Cloquet Carlton County Airport
Metric (Imperial)
Date Time (cdt) Wind (kph) Vis. (km) Weather Sky Cond. Temperature (ºC) Relative Humidity Wind Chill (°C) Heat Index (°C) Pressure Precipitation (cm)
Air Dwpt 6 hour altimeter (cm) sea level (mb) 1 hr 3 hr 6 hr
Max. Min.
09 13:55 NW 24 G 44 16.09 Partly Cloudy SCT070 11 -8 26% 75.59 0.0
09 13:35 NW 19 G 39 16.09 Partly Cloudy SCT060 9 -8 29% 7 75.57 0.0
09 13:15 NW 24 G 43 16.09 Partly Cloudy SCT060 11 -8 26% 75.57 0.0
09 12:55 NW 31 G 48 16.09 Partly Cloudy SCT060 10 -8 28% 7 75.57 0.0
09 12:35 N 30 G 43 16.09 Partly Cloudy SCT060 11 -8 26% 75.54 0.0
09 12:15 NW 26 G 43 16.09 Partly Cloudy SCT060 10 -8 28% 7 75.54 0.0
09 11:55 NW 26 G 46 16.09 Partly Cloudy SCT060 9 -8 29% 6 75.51 0.0
09 11:35 NW 31 G 46 16.09 Partly Cloudy SCT060 9 -8 29% 5 75.51 0.0
09 11:15 NW 30 G 46 16.09 Partly Cloudy SCT060 9 -8 29% 6 75.49 0.0
09 10:55 NW 26 G 43 16.09 Partly Cloudy SCT050 9 -7 32% 6 75.46 0.0
09 10:35 NW 30 G 43 16.09 Partly Cloudy SCT050 9 -7 32% 6 75.46 0.0
09 10:15 NW 30 G 41 16.09 Mostly Cloudy BKN050 8 -7 34% 4 75.41 0.0
09 09:55 NW 22 G 44 16.09 Partly Cloudy SCT050 8 -7 34% 5 75.39 0.0
09 09:35 NW 33 G 41 16.09 Fair and Breezy CLR 8 -7 34% 4 75.39 0.0
09 09:15 N 22 G 43 16.09 Fair CLR 8 -7 34% 5 75.39 0.0
09 08:55 N 26 G 43 16.09 Fair CLR 8 -9 29% 5 75.36 0.0
09 08:35 NW 24 G 37 16.09 Fair CLR 8 -8 32% 5 75.31 0.0
09 08:15 NW 24 G 37 16.09 Fair CLR 7 -8 34% 4 75.31 0.0
09 07:55 NW 24 G 35 16.09 Partly Cloudy SCT095 7 -9 31% 4 75.29 0.0
09 07:35 NW 15 16.09 Overcast OVC095 7 -8 34% 5 75.26 0.0
09 07:15 NW 17 G 30 16.09 Overcast OVC095 7 -8 34% 4 75.26 0.0
09 06:55 NW 11 G 26 16.09 Overcast OVC095 7 -9 31% 5 75.23 0.0
09 06:35 NW 17 G 28 16.09 Overcast OVC095 7 -9 31% 4 75.21 0.0
09 06:15 N 24 G 31 16.09 Overcast BKN085 OVC100 7 -7 37% 4 75.18 0.0
09 05:55 NW 11 16.09 Overcast OVC070 7 0 61% 5 75.16 0.0
09 05:35 W 9 16.09 Overcast OVC060 7 1 66% 5 75.16 0.0
09 05:15 W 13 16.09 Light Rain OVC060 7 0 61% 5 75.13 0.0
09 04:55 W 13 16.09 Overcast OVC060 7 0 61% 5 75.13 0.0
09 04:35 W 13 16.09 Light Drizzle OVC070 7 -1 57% 5 75.13 0.0
09 04:15 W 17 16.09 Light Drizzle OVC070 8 -1 53% 6 75.11 0.0
09 03:55 W 13 16.09 Overcast SCT055 OVC070 8 -2 50% 6 75.11 0.0
09 03:35 W 20 G 28 16.09 Light Rain SCT040 BKN046 OVC080 9 -3 43% 6 75.08 0.0
09 03:15 W 20 G 33 16.09 Overcast BKN044 OVC050 9 -4 40% 6 75.08 0.0
09 02:55 W 19 G 26 16.09 Overcast BKN048 BKN060 OVC070 9 -4 40% 7 75.08 0.0
09 02:35 W 19 G 30 16.09 Overcast SCT065 BKN070 OVC095 10 -7 30% 8 75.08 0.0
09 02:15 W 9 16.09 Overcast SCT065 SCT070 OVC090 10 -8 28% 9 75.08 0.0
09 01:55 NW 13 16.09 Overcast OVC090 11 -8 26% 75.11 0.0
09 01:35 NW 17 G 26 16.09 Mostly Cloudy BKN100 10 -8 28% 8 75.11 0.0
09 01:15 NW 13 16.09 Partly Cloudy SCT080 SCT110 10 -7 30% 8 75.11 0.0
09 00:55 W 9 16.09 Mostly Cloudy SCT065 BKN080 BKN090 9 -7 32% 8 75.08 0.0
09 00:35 W 7 16.09 Fair CLR 9 -7 32% 8 75.08 0.0
09 00:15 W 7 16.09 Fair CLR 9 -7 32% 8 75.08 0.0
08 23:55 W 6 16.09 Fair CLR 9 -7 32% 75.06 0.0
08 23:35 W 7 16.09 Fair CLR 9 -7 32% 8 75.08 0.0
08 23:15 W 9 16.09 Fair CLR 9 -7 32% 8 75.08 0.0
08 22:55 W 6 16.09 Fair CLR 9 -7 32% 75.08 0.0
08 22:35 W 9 16.09 Fair CLR 10 -7 30% 9 75.08 0.0
08 22:15 W 7 16.09 Fair CLR 11 -7 28% 75.08 0.0
08 21:55 W 15 16.09 Fair CLR 12 -7 26% 75.08 0.0
08 21:35 W 17 16.09 Fair CLR 12 -7 26% 75.08 0.0
08 21:15 W 17 16.09 Fair CLR 13 -7 24% 75.06 0.0
08 20:55 NW 11 16.09 Partly Cloudy SCT090 13 -6 26% 75.03 0.0
08 20:35 NW 13 G 26 16.09 Partly Cloudy SCT090 14 -6 25% 75.01 0.0
08 20:15 NW 11 16.09 Mostly Cloudy BKN090 15 -5 25% 74.98 0.0
08 19:55 NW 17 16.09 Mostly Cloudy BKN100 16 -6 22% 74.98 0.0
08 19:35 NW 19 G 26 16.09 Partly Cloudy SCT100 16 -8 19% 74.98 0.0
08 19:15 W 15 16.09 Partly Cloudy SCT110 17 -8 17% 74.98 0.0
08 18:55 W 17 16.09 Partly Cloudy SCT100 17 -8 17% 74.98 0.0
08 18:35 W 22 G 33 16.09 Partly Cloudy SCT110 17 -9 16% 74.98 0.0
08 18:15 W 20 G 26 16.09 Partly Cloudy SCT110 17 -8 17% 74.98 0.0
08 17:55 W 15 G 35 16.09 Partly Cloudy SCT100 17 -9 16% 75.01 0.0
08 17:35 W 17 G 33 16.09 Partly Cloudy SCT100 17 -8 17% 75.03 0.0
08 17:15 W 13 G 30 16.09 Mostly Cloudy BKN100 17 -8 17% 75.03 0.0
08 16:55 W 26 G 35 16.09 Partly Cloudy SCT100 18 -9 15% 75.03 0.0
08 16:35 W 26 G 39 16.09 Partly Cloudy SCT100 18 -9 15% 75.06 0.0
08 16:15 SW 17 G 30 16.09 Partly Cloudy SCT100 17 -9 16% 75.06 0.0
08 15:55 W 20 G 28 16.09 Partly Cloudy SCT100 18 -9 15% 75.08 0.0
08 15:35 W 20 G 37 16.09 Partly Cloudy SCT100 17 -9 16% 75.11 0.0
08 15:15 W 20 G 26 16.09 Mostly Cloudy BKN100 17 -9 16% 75.13 0.0
08 14:55 W 22 G 41 16.09 Partly Cloudy SCT100 16 -9 17% 75.13 0.0
08 14:35 W 13 G 28 16.09 Partly Cloudy SCT090 17 -9 16% 75.16 0.0
08 14:15 W 19 G 28 16.09 Partly Cloudy SCT100 17 -9 16% 75.18 0.0
08 13:55 W 13 16.09 Mostly Cloudy BKN100 15 -9 18% 75.21 0.0
08 13:35 W 11 16.09 Partly Cloudy SCT100 15 -9 18% 75.23 0.0
08 13:15 NW 13 G 30 16.09 Partly Cloudy SCT100 16 -9 17% 75.26 0.0
08 12:55 SW 17 16.09 Mostly Cloudy BKN100 15 -9 18% 75.26 0.0
08 12:35 Calm 16.09 Mostly Cloudy BKN100 14 -10 18% 75.31 0.0
08 12:15 W 9 16.09 Mostly Cloudy BKN110 14 -9 20% 75.34 0.0
08 11:55 NW 11 16.09 Mostly Cloudy BKN110 14 -9 20% 75.36 0.0
08 11:35 W 17 16.09 Partly Cloudy SCT110 14 -9 20% 75.36 0.0
08 11:15 Calm 16.09 Fair CLR 13 -8 23% 75.39 0.0
08 10:55 W 7 16.09 Fair CLR 13 -9 21% 75.41 0.0
08 10:35 W 11 16.09 Fair CLR 13 -9 21% 75.41 0.0
08 10:15 W 9 16.09 Fair CLR 13 -8 23% 75.41 0.0
08 09:55 SW 9 16.09 Mostly Cloudy BKN110 11 -7 28% 75.44 0.0
08 09:35 SW 9 16.09 Mostly Cloudy BKN120 11 -7 28% 75.46 0.0
08 09:15 SW 11 16.09 Partly Cloudy SCT120 10 -7 30% 9 75.46 0.0
08 08:55 SW 11 16.09 Partly Cloudy SCT120 9 -7 32% 8 75.46 0.0
08 08:35 SW 11 16.09 Partly Cloudy SCT120 8 -7 34% 6 75.49 0.0
08 08:15 SW 13 16.09 Partly Cloudy SCT120 7 -7 37% 5 75.49 0.0
08 07:55 SW 13 16.09 Mostly Cloudy BKN120 6 -7 39% 4 75.49 0.0
08 07:35 SW 9 16.09 Partly Cloudy SCT120 6 -7 39% 4 75.49 0.0
08 07:15 SW 9 16.09 Partly Cloudy SCT120 4 -7 45% 2 75.49 0.0
08 06:55 SW 7 16.09 Fair CLR 2 -6 56% 0 75.46 0.0
08 06:35 W 6 16.09 Fair CLR -2 -6 74% 75.49 0.0
08 06:15 Calm 16.09 Fair CLR -1 -7 64% 75.46 0.0
08 05:55 SW 6 16.09 Fair CLR -1 -8 59% 75.46 0.0
08 05:35 SW 7 16.09 Fair CLR 1 -8 51% -1 75.49 0.0
08 05:15 Calm 16.09 Fair CLR -1 -8 59% 75.49 0.0
08 04:55 SW 6 16.09 Fair CLR -1 -8 59% 75.49 0.0
08 04:35 SW 6 16.09 Fair CLR -1 -8 59% 75.49 0.0
08 04:15 Calm 16.09 Fair CLR -2 -7 69% 75.51 0.0
08 03:55 Calm 16.09 Fair CLR -2 -7 69% 75.51 0.0
08 03:35 Calm 16.09 Fair CLR -2 -7 69% 75.51 0.0
08 03:15 Calm 16.09 Fair CLR -2 -7 69% 75.54 0.0
08 02:55 Calm 16.09 Fair CLR -2 -7 69% 75.54 0.0
08 02:35 Calm 16.09 Fair CLR -2 -6 74% 75.57 0.0
08 02:15 Calm 16.09 Fair CLR -2 -7 69% 75.57 0.0
08 01:55 Calm 16.09 Fair CLR -2 -7 69% 75.57 0.0
08 01:35 Calm 16.09 Fair CLR -2 -7 69% 75.59 0.0
08 01:15 Calm 16.09 Fair CLR -2 -7 69% 75.62 0.0
08 00:55 Calm 16.09 Fair CLR -2 -7 69% 75.62 0.0
08 00:35 Calm 16.09 Fair CLR -2 -7 69% 75.62 0.0
08 00:15 Calm 16.09 Fair CLR -1 -7 64% 75.62 0.0
07 23:55 Calm 16.09 Fair CLR 0 -7 60% 75.62 0.0
07 23:35 Calm 16.09 Fair CLR 0 -6 64% 75.64 0.0
07 23:15 Calm 16.09 Fair CLR 0 -7 60% 75.64 0.0
07 22:55 Calm 16.09 Fair CLR 1 -7 56% 75.64 0.0
07 22:35 Calm 16.09 Fair CLR 1 -7 56% 75.64 0.0
07 22:15 Calm 16.09 Fair CLR 2 -7 52% 75.64 0.0
07 21:55 Calm 16.09 Fair CLR 3 -6 52% 75.64 0.0
07 21:35 Calm 16.09 Fair CLR 4 -7 45% 75.64 0.0
07 21:15 Calm 16.09 Fair CLR 5 -8 39% 75.62 0.0
07 20:55 Calm 16.09 Fair CLR 7 -8 34% 75.62 0.0
07 20:35 NW 7 16.09 Fair CLR 8 -9 29% 7 75.59 0.0
07 20:15 NW 9 16.09 Fair CLR 9 -9 27% 8 75.57 0.0
07 19:55 N 7 16.09 Partly Cloudy SCT090 9 -9 27% 8 75.57 0.0
07 19:35 N 15 16.09 Overcast OVC080 11 -9 24% 75.57 0.0
07 19:15 N 9 16.09 Overcast BKN080 OVC090 11 -9 24% 75.57 0.0
07 18:55 SW 15 16.09 Mostly Cloudy BKN080 10 -9 26% 8 75.54 0.0
07 18:35 W 17 G 26 16.09 Mostly Cloudy BKN090 11 -9 24% 75.57 0.0
07 18:15 W 19 16.09 Mostly Cloudy SCT075 BKN100 11 -9 24% 75.57 0.0
07 17:55 W 15 16.09 Mostly Cloudy BKN075 BKN090 11 -9 24% 75.57 0.0
07 17:35 W 26 G 35 16.09 Mostly Cloudy BKN075 BKN090 12 -9 22% 75.57 0.0
07 17:15 W 9 16.09 Mostly Cloudy SCT045 BKN075 10 -8 28% 9 75.59 0.0
07 16:55 N 19 16.09 Partly Cloudy SCT047 SCT060 10 -8 28% 8 75.59 0.0
07 16:35 W 19 16.09 Partly Cloudy SCT060 10 -7 30% 8 75.59 0.0
07 16:15 W 19 G 31 16.09 Partly Cloudy SCT060 11 -7 28% 75.59 0.0
07 15:55 W 22 G 30 16.09 Partly Cloudy SCT060 10 -7 30% 7 75.62 0.0
07 15:35 W 9 16.09 Partly Cloudy SCT060 9 -7 32% 8 75.62 0.0
07 15:15 W 17 G 26 16.09 Partly Cloudy SCT030 SCT050 SCT060 9 -7 32% 7 75.64 0.0
07 14:55 NW 17 G 41 16.09 Partly Cloudy SCT050 SCT060 SCT070 9 -7 32% 7 75.64 0.0
07 14:35 W 15 G 52 16.09 Partly Cloudy SCT060 SCT070 9 -7 32% 7 75.64 0.0
07 14:15 W 26 G 39 16.09 Partly Cloudy SCT080 9 -8 29% 6 75.67 0.0
07 13:55 W 28 G 35 16.09 Partly Cloudy SCT060 9 -8 29% 6 75.67 0.0
07 13:35 W 17 G 37 16.09 Partly Cloudy SCT070 9 -8 29% 7 75.64 0.0
07 13:15 W 24 16.09 Partly Cloudy SCT070 SCT090 9 -9 27% 6 75.67 0.0
07 12:55 W 19 G 30 16.09 Partly Cloudy SCT060 SCT080 9 -8 29% 7 75.67 0.0
07 12:35 W 20 G 28 16.09 Mostly Cloudy SCT060 BKN070 8 -8 32% 5 75.72 0.0
07 12:15 W 22 G 33 16.09 Mostly Cloudy SCT070 BKN075 BKN090 9 -8 29% 6 75.72 0.0
07 11:55 W 20 G 26 16.09 Mostly Cloudy SCT060 BKN070 BKN090 9 -8 29% 6 75.74 0.0
07 11:35 W 26 G 31 16.09 Mostly Cloudy SCT060 BKN070 BKN090 8 -8 32% 5 75.74 0.0
07 11:15 W 17 16.09 Overcast SCT060 SCT065 OVC090 8 -8 32% 6 75.77 0.0
07 10:55 W 11 G 17 16.09 Mostly Cloudy BKN050 BKN090 8 -8 32% 6 75.77 0.0
07 10:35 NW 17 16.09 Partly Cloudy SCT050 SCT080 8 -7 34% 6 75.77 0.0
07 10:15 W 20 16.09 Mostly Cloudy SCT060 BKN080 7 -7 37% 4 75.79 0.0
07 09:55 W 22 G 28 16.09 Overcast SCT049 SCT060 OVC080 7 -7 37% 4 75.79 0.0
07 09:35 W 20 G 31 16.09 Overcast SCT070 OVC080 7 -7 37% 4 75.79 0.0
07 09:15 W 17 G 30 16.09 Overcast SCT070 OVC080 7 -7 37% 4 75.79 0.0
07 08:55 W 20 16.09 Partly Cloudy SCT070 6 -7 39% 3 75.82 0.0
07 08:35 NW 22 16.09 Fair CLR 6 -6 42% 2 75.82 0.0
07 08:15 W 19 16.09 Fair CLR 5 -6 45% 2 75.82 0.0
07 07:55 W 11 16.09 Fair CLR 4 -6 48% 2 75.82 0.0
07 07:35 W 11 16.09 Fair CLR 3 -5 56% 0 75.82 0.0
07 07:15 W 11 16.09 Fair CLR 2 -5 60% -1 75.82 0.0
07 06:55 W 9 16.09 Fair CLR 1 -5 65% -2 75.82 0.0
07 06:35 W 9 16.09 Fair CLR 1 -5 65% -2 75.82 0.0
07 06:15 W 9 16.09 Fair CLR 0 -6 64% -3 75.82 0.0
07 05:55 W 9 16.09 Fair CLR 0 -6 64% -3 75.82 0.0
07 05:35 W 9 16.09 Fair CLR 0 -6 64% -3 75.82 0.0
07 05:15 W 11 16.09 Fair CLR 0 -6 64% -3 75.82 0.0
07 04:55 W 9 16.09 Fair CLR 0 -6 64% -3 75.82 0.0
07 04:35 W 9 16.09 Fair CLR 0 -6 64% -3 75.82 0.0
07 04:15 W 9 16.09 Fair CLR 1 -5 65% -2 75.82 0.0
07 03:55 W 7 16.09 Fair CLR 0 -5 69% -2 75.84 0.0
07 03:35 W 7 16.09 Fair CLR 0 -5 69% -2 75.84 0.0
07 03:15 W 6 16.09 Fair CLR 1 -6 60% 75.84 0.0
07 02:55 W 7 16.09 Mostly Cloudy BKN070 2 -5 60% 0 75.82 0.0
07 02:35 SW 9 16.09 Overcast OVC070 2 -5 60% -0 75.84 0.0
07 02:15 W 7 16.09 Overcast OVC070 2 -5 60% 0 75.84 0.0
07 01:55 W 7 16.09 Overcast OVC070 2 -5 60% 0 75.87 0.0
07 01:35 SW 7 16.09 Overcast SCT048 OVC070 2 -5 60% 0 75.87 0.0
07 01:15 SW 7 16.09 Overcast SCT050 OVC070 2 -5 60% 0 75.9 0.0
07 00:55 SW 7 16.09 Overcast SCT050 OVC070 2 -5 60% 0 75.9 0.0
07 00:35 SW 6 16.09 Overcast OVC070 2 -5 60% 75.92 0.0
07 00:15 SW 6 16.09 Overcast OVC070 2 -5 60% 75.92 0.0
06 23:55 SW 6 16.09 Overcast OVC070 3 -5 56% 75.92 0.0
06 23:35 W 6 16.09 Overcast OVC070 3 -5 56% 75.95 0.0
06 23:15 W 7 16.09 Overcast OVC070 3 -5 56% 1 75.95 0.0
06 22:55 Calm 16.09 Overcast OVC060 3 -5 56% 75.95 0.0
06 22:35 SW 6 16.09 Overcast OVC060 3 -6 52% 75.95 0.0
06 22:15 SW 6 16.09 Overcast OVC060 3 -5 56% 75.97 0.0
06 21:55 Calm 16.09 Overcast OVC050 3 -6 52% 75.97 0.0
06 21:35 W 6 16.09 Overcast OVC060 3 -6 52% 75.97 0.0
06 21:15 Calm 16.09 Overcast OVC060 3 -6 52% 75.97 0.0
06 20:55 W 6 16.09 Overcast OVC060 4 -6 48% 75.97 0.0
06 20:35 W 6 16.09 Overcast OVC060 4 -6 48% 75.95 0.0
06 20:15 W 7 16.09 Overcast OVC060 4 -6 48% 2 75.97 0.0
06 19:55 W 13 16.09 Overcast SCT050 OVC055 4 -6 48% 1 75.97 0.0
06 19:35 W 17 16.09 Overcast SCT050 OVC055 4 -6 48% 1 75.97 0.0
06 19:15 W 15 16.09 Overcast OVC050 4 -6 48% 1 75.97 0.0
06 18:55 NW 13 16.09 Overcast BKN049 OVC055 4 -6 48% 1 75.97 0.0
06 18:35 W 11 16.09 Overcast BKN049 OVC055 4 -6 48% 2 75.97 0.0
06 18:15 W 11 16.09 Overcast SCT044 SCT050 OVC055 4 -5 52% 2 76 0.0
06 17:55 W 19 G 28 16.09 Overcast SCT042 BKN050 OVC060 5 -6 45% 2 75.97 0.0
06 17:35 W 17 16.09 Overcast SCT044 OVC060 5 -6 45% 2 75.97 0.0
06 17:15 W 11 16.09 Overcast BKN047 OVC060 5 -6 45% 3 75.97 0.0
06 16:55 W 15 16.09 Overcast BKN049 OVC060 5 -7 42% 2 75.97 0.0
06 16:35 W 20 G 28 16.09 Overcast BKN050 OVC060 6 -7 39% 3 75.97 0.0
06 16:15 W 20 G 30 16.09 Overcast SCT046 OVC050 5 -7 42% 1 75.97 0.0
06 15:55 W 13 16.09 Overcast BKN048 OVC055 5 -7 42% 2 75.97 0.0
06 15:35 W 17 G 26 16.09 Overcast OVC048 5 -7 42% 2 76 0.0
06 15:15 W 17 G 28 16.09 Overcast OVC046 5 -7 42% 2 76 0.0
06 14:55 W 19 16.09 Overcast OVC046 5 -7 42% 2 76 0.0
06 14:35 W 17 16.09 Overcast BKN044 OVC050 4 -7 45% 1 76 0.0
06 14:15 W 13 16.09 Overcast BKN042 OVC050 5 -7 42% 2 76 0.0
Date Time (cdt) Wind (kph) Vis. (km) Weather Sky Cond. Air Dwpt Max. Min. Relative Humidity Wind Chill (°C) Heat Index (°C) altimeter (cm) sea level (mb) 1 hr 3 hr 6 hr
6 hour
Temperature (ºC) Pressure Precipitation (cm)